Time;durP1;ratioP1;P1;durP2;ratioP2;P2;SDS_P1;SDS_P2;PMS_P1;PMS_P2;Temp;Humidity;BMP_temperature;BMP_pressure;BME280_temperature;BME280_humidity;BME280_pressure;Samples;Min_cycle;Max_cycle;Signal;HPM_P1;HPM_P2
2024/02/26 00:00:00;;;;;;;1.70;1.00;;;;;;;7.35;41.90;99403.41;5002884;28;20046;-75
2024/02/26 00:02:28;;;;;;;2.08;1.15;;;;;;;7.35;42.03;99414.28;4987095;28;20092;-76
2024/02/26 00:04:56;;;;;;;1.95;0.90;;;;;;;7.36;41.97;99413.25;4986687;28;20049;-75
2024/02/26 00:07:24;;;;;;;2.17;1.10;;;;;;;7.37;42.10;99423.13;4980535;28;20074;-75
2024/02/26 00:09:52;;;;;;;1.60;0.90;;;;;;;7.37;41.94;99424.00;4999444;28;20418;-76
2024/02/26 00:12:22;;;;;;;2.10;1.08;;;;;;;7.40;41.91;99409.25;5004505;28;20080;-76
2024/02/26 00:14:50;;;;;;;1.80;1.00;;;;;;;7.40;42.18;99425.56;4991833;23;20414;-75
2024/02/26 00:17:19;;;;;;;2.42;1.08;;;;;;;7.38;42.17;99417.56;5001415;28;20149;-75
2024/02/26 00:19:47;;;;;;;2.30;1.00;;;;;;;7.40;42.08;99428.28;4996648;28;20038;-75
2024/02/26 00:22:17;;;;;;;2.67;1.02;;;;;;;7.40;41.70;99410.09;5002871;28;20042;-75
2024/02/26 00:24:45;;;;;;;1.33;0.90;;;;;;;7.39;41.87;99408.38;5001627;28;20050;-75
2024/02/26 00:27:13;;;;;;;1.52;0.85;;;;;;;7.41;41.68;99409.09;5004678;28;20386;-76
2024/02/26 00:29:43;;;;;;;1.70;0.95;;;;;;;7.42;41.99;99409.97;5000525;28;20493;-75
2024/02/26 00:32:11;;;;;;;1.48;0.90;;;;;;;7.41;41.51;99409.09;5000983;28;20049;-75
2024/02/26 00:34:38;;;;;;;1.85;1.00;;;;;;;7.41;42.01;99408.25;5000944;28;20050;-75
2024/02/26 00:37:07;;;;;;;2.28;0.95;;;;;;;7.41;41.61;99405.50;5001033;28;20505;-75
2024/02/26 00:39:35;;;;;;;1.48;0.90;;;;;;;7.41;41.61;99411.81;5004140;28;20565;-75
2024/02/26 00:42:03;;;;;;;1.38;0.88;;;;;;;7.41;41.34;99403.66;4981246;28;20073;-75
2024/02/26 00:44:31;;;;;;;1.75;0.88;;;;;;;7.42;41.78;99413.53;4995163;28;20042;-75
2024/02/26 00:47:01;;;;;;;1.92;0.98;;;;;;;7.43;41.48;99409.81;5001107;28;20097;-75
2024/02/26 00:49:29;;;;;;;2.05;1.10;;;;;;;7.42;42.20;99410.81;5002570;28;20148;-75
2024/02/26 00:51:57;;;;;;;2.08;0.85;;;;;;;7.41;41.79;99398.22;4986409;28;20053;-75
2024/02/26 00:54:25;;;;;;;2.15;0.98;;;;;;;7.44;42.13;99411.50;4995633;28;20045;-76
2024/02/26 00:56:53;;;;;;;2.08;0.90;;;;;;;7.43;42.24;99411.69;4987993;28;20042;-76
2024/02/26 00:59:21;;;;;;;1.73;0.88;;;;;;;7.44;42.24;99418.81;5002327;28;20042;-75
2024/02/26 01:01:49;;;;;;;2.20;1.00;;;;;;;7.44;41.99;99414.22;4989666;28;20050;-75
2024/02/26 01:04:18;;;;;;;1.70;0.90;;;;;;;7.45;41.82;99417.81;5001922;28;20407;-75
2024/02/26 01:06:47;;;;;;;2.03;1.10;;;;;;;7.44;42.16;99411.50;4998043;28;20038;-75
2024/02/26 01:09:16;;;;;;;2.58;1.35;;;;;;;7.43;41.77;99408.97;4999741;28;20030;-75
2024/02/26 01:11:44;;;;;;;1.90;1.10;;;;;;;7.43;41.88;99411.69;4985437;28;20042;-75
2024/02/26 01:14:12;;;;;;;2.08;1.05;;;;;;;7.42;41.97;99418.97;5002041;28;20081;-76
2024/02/26 01:16:40;;;;;;;1.83;0.95;;;;;;;7.41;42.12;99414.53;4996480;28;20081;-75
2024/02/26 01:19:08;;;;;;;1.92;1.30;;;;;;;7.41;42.12;99421.84;4998372;28;20041;-76
2024/02/26 01:21:38;;;;;;;1.63;0.98;;;;;;;7.41;42.20;99410.97;4995481;28;20054;-75
2024/02/26 01:24:06;;;;;;;3.10;1.15;;;;;;;7.39;41.94;99404.81;4998958;28;20053;-76
2024/02/26 01:26:34;;;;;;;1.30;0.80;;;;;;;7.38;42.04;99409.38;4998025;28;20286;-75
2024/02/26 01:29:03;;;;;;;1.95;0.90;;;;;;;7.36;42.14;99407.81;4980838;28;20048;-75
2024/02/26 01:31:30;;;;;;;2.70;0.93;;;;;;;7.35;42.18;99406.97;4981057;28;20045;-75
2024/02/26 01:33:58;;;;;;;1.25;0.80;;;;;;;7.33;42.24;99409.00;4997289;28;20573;-75
2024/02/26 01:36:26;;;;;;;1.70;0.90;;;;;;;7.33;42.54;99405.41;4997113;28;20050;-76
2024/02/26 01:38:56;;;;;;;1.73;0.90;;;;;;;7.31;42.39;99410.13;5002813;28;20311;-76
2024/02/26 01:41:24;;;;;;;1.77;0.90;;;;;;;7.31;42.61;99410.13;5008662;28;20042;-76
2024/02/26 01:43:53;;;;;;;1.60;0.80;;;;;;;7.30;42.89;99411.13;4987068;28;20056;-75
2024/02/26 01:46:22;;;;;;;2.22;0.95;;;;;;;7.29;42.95;99406.69;4995710;28;20420;-75
2024/02/26 01:48:50;;;;;;;2.20;0.90;;;;;;;7.28;42.76;99404.97;4984028;28;20043;-76
2024/02/26 01:51:18;;;;;;;1.40;0.80;;;;;;;7.26;43.08;99402.44;4994371;28;20053;-76
2024/02/26 01:53:47;;;;;;;2.13;1.00;;;;;;;7.26;43.24;99412.47;4984471;28;20079;-75
2024/02/26 01:56:19;;;;;;;1.55;0.90;;;;;;;7.26;43.50;99398.84;4983526;28;20057;-75
2024/02/26 01:58:48;;;;;;;1.13;0.80;;;;;;;7.23;43.10;99410.00;4977191;28;20506;-75
2024/02/26 02:01:17;;;;;;;2.10;1.08;;;;;;;7.23;43.06;99405.44;4995306;28;20566;-76
2024/02/26 02:03:46;;;;;;;2.30;1.10;;;;;;;7.23;43.61;99405.44;4997846;28;20058;-76
2024/02/26 02:06:15;;;;;;;1.40;0.98;;;;;;;7.21;43.71;99404.72;4993491;28;20039;-76
2024/02/26 02:08:43;;;;;;;1.05;0.80;;;;;;;7.18;43.76;99411.34;4982436;28;20456;-76
2024/02/26 02:11:12;;;;;;;1.05;0.75;;;;;;;7.16;43.64;99405.19;4994478;28;20050;-76
2024/02/26 02:13:42;;;;;;;1.38;1.00;;;;;;;7.17;43.83;99411.47;4998774;28;20046;-76
2024/02/26 02:16:10;;;;;;;2.35;0.90;;;;;;;7.14;43.65;99414.47;4997201;28;20100;-76
2024/02/26 02:18:37;;;;;;;1.73;0.98;;;;;;;7.12;43.85;99408.31;5006985;28;20076;-76
2024/02/26 02:21:07;;;;;;;1.27;0.90;;;;;;;7.10;44.09;99411.22;4985119;28;20397;-76
2024/02/26 02:23:35;;;;;;;1.00;0.63;;;;;;;7.07;43.85;99419.66;4986378;28;20045;-76
2024/02/26 02:26:03;;;;;;;1.63;0.90;;;;;;;7.05;43.92;99412.63;4986123;28;20050;-77
2024/02/26 02:28:33;;;;;;;1.30;0.80;;;;;;;7.01;44.42;99400.34;4986475;28;20065;-76
2024/02/26 02:31:02;;;;;;;1.23;0.80;;;;;;;6.97;44.53;99402.50;4981750;28;20043;-76
2024/02/26 02:33:30;;;;;;;2.17;1.30;;;;;;;6.96;44.42;99399.91;4989122;28;20140;-76
2024/02/26 02:35:58;;;;;;;1.40;0.88;;;;;;;6.94;44.78;99399.22;4998928;28;20047;-76
2024/02/26 02:38:29;;;;;;;1.65;1.08;;;;;;;6.93;44.96;99389.34;4988170;28;20045;-76
2024/02/26 02:40:57;;;;;;;1.58;0.90;;;;;;;6.90;44.63;99395.94;4981542;28;20120;-76
2024/02/26 02:43:25;;;;;;;1.30;1.00;;;;;;;6.87;45.07;99404.38;4977491;28;20137;-76
2024/02/26 02:45:53;;;;;;;2.63;1.08;;;;;;;6.87;44.98;99406.22;4983343;28;20100;-76
2024/02/26 02:48:21;;;;;;;2.00;1.13;;;;;;;6.85;45.34;99409.13;5000372;28;20119;-76
2024/02/26 02:50:50;;;;;;;2.13;1.02;;;;;;;6.85;45.13;99402.81;4990241;28;20056;-75
2024/02/26 02:53:29;;;;;;;1.55;0.98;;;;;;;6.86;46.52;99401.81;4992682;28;20061;-76
2024/02/26 02:55:57;;;;;;;2.92;1.08;;;;;;;6.80;45.47;99398.66;4998426;28;20047;-76
2024/02/26 02:58:25;;;;;;;1.67;1.05;;;;;;;6.80;45.38;99398.66;4985209;28;20038;-75
2024/02/26 03:00:55;;;;;;;1.40;0.93;;;;;;;6.80;45.25;99393.22;4983170;28;20046;-76
2024/02/26 03:03:24;;;;;;;1.50;0.90;;;;;;;6.78;45.49;99407.97;4983815;28;20070;-75
2024/02/26 03:05:52;;;;;;;2.38;1.20;;;;;;;6.77;45.55;99401.69;4998998;28;20046;-75
2024/02/26 03:08:20;;;;;;;1.60;0.90;;;;;;;6.76;45.48;99397.25;4989243;28;20125;-75
2024/02/26 03:10:49;;;;;;;2.00;1.10;;;;;;;6.75;45.97;99400.97;5014601;28;20053;-75
2024/02/26 03:13:18;;;;;;;2.05;1.00;;;;;;;6.72;45.64;99393.06;4989418;28;20481;-75
2024/02/26 03:15:46;;;;;;;1.55;1.00;;;;;;;6.72;46.08;99395.78;4991874;28;20050;-75
2024/02/26 03:18:14;;;;;;;1.88;1.00;;;;;;;6.71;45.72;99394.06;5008635;28;20121;-75
2024/02/26 03:20:42;;;;;;;1.98;1.02;;;;;;;6.69;46.27;99387.09;5007863;28;20038;-75
2024/02/26 03:23:12;;;;;;;2.47;1.38;;;;;;;6.69;46.03;99389.81;4998210;28;20068;-75
2024/02/26 03:25:40;;;;;;;2.65;1.27;;;;;;;6.68;45.96;99390.78;4982243;28;20039;-74
2024/02/26 03:28:09;;;;;;;1.63;1.10;;;;;;;6.69;46.25;99384.38;4995564;28;20049;-75
2024/02/26 03:30:37;;;;;;;2.08;1.13;;;;;;;6.65;46.45;99385.63;4992722;28;20039;-75
2024/02/26 03:33:05;;;;;;;2.17;1.23;;;;;;;6.63;46.27;99390.34;4976732;28;20133;-75
2024/02/26 03:35:33;;;;;;;3.03;1.30;;;;;;;6.61;46.32;99389.66;5008225;28;20038;-75
2024/02/26 03:38:02;;;;;;;1.60;1.10;;;;;;;6.60;46.26;99387.94;5007867;28;20042;-75
2024/02/26 03:40:30;;;;;;;2.05;1.10;;;;;;;6.57;46.63;99390.94;4999574;28;20050;-75
2024/02/26 03:42:58;;;;;;;1.85;1.10;;;;;;;6.56;46.32;99381.94;5005772;28;20038;-75
2024/02/26 03:45:28;;;;;;;2.08;1.15;;;;;;;6.57;46.68;99389.09;5001248;28;20082;-76
2024/02/26 03:47:56;;;;;;;2.58;1.10;;;;;;;6.54;46.28;99385.78;4994365;28;20490;-75
2024/02/26 03:50:24;;;;;;;2.42;1.20;;;;;;;6.54;46.19;99388.50;5002560;28;20038;-75
2024/02/26 03:52:52;;;;;;;1.45;1.02;;;;;;;6.53;46.44;99384.94;4997840;28;20129;-75
2024/02/26 03:55:24;;;;;;;2.25;1.20;;;;;;;6.52;46.52;99394.09;5012829;28;20077;-75
2024/02/26 03:57:53;;;;;;;1.40;1.00;;;;;;;6.50;46.37;99393.38;5012073;28;20112;-75
2024/02/26 04:00:21;;;;;;;1.83;1.10;;;;;;;6.51;46.53;99397.81;5004707;28;20088;-75
2024/02/26 04:02:53;;;;;;;1.92;1.30;;;;;;;6.51;46.85;99397.81;4989499;28;20037;-76
2024/02/26 04:05:21;;;;;;;2.15;1.10;;;;;;;6.50;46.41;99397.97;5004093;28;20100;-74
2024/02/26 04:07:49;;;;;;;1.75;1.10;;;;;;;6.49;46.66;99394.38;5006410;28;20054;-75
2024/02/26 04:10:17;;;;;;;2.05;1.10;;;;;;;6.50;46.61;99406.13;5013964;28;20135;-75
2024/02/26 04:12:45;;;;;;;1.98;1.15;;;;;;;6.48;46.92;99406.25;4993333;28;20471;-75
2024/02/26 04:15:13;;;;;;;2.72;1.15;;;;;;;6.48;46.53;99405.41;4985772;28;20061;-75
2024/02/26 04:17:42;;;;;;;1.80;1.05;;;;;;;6.48;46.47;99405.41;4986106;28;20141;-74
2024/02/26 04:20:16;;;;;;;2.10;1.10;;;;;;;6.49;47.72;99405.25;4995584;28;20559;-74
2024/02/26 04:22:45;;;;;;;2.65;1.38;;;;;;;6.46;47.03;99400.09;4999950;28;20046;-75
2024/02/26 04:25:13;;;;;;;2.35;1.35;;;;;;;6.45;47.05;99403.81;5006341;28;20216;-74
2024/02/26 04:27:41;;;;;;;2.45;1.10;;;;;;;6.43;46.79;99403.97;5008464;28;20137;-74
2024/02/26 04:30:10;;;;;;;1.88;1.30;;;;;;;6.42;47.03;99404.13;4987850;28;20042;-73
2024/02/26 04:32:38;;;;;;;3.10;1.48;;;;;;;6.41;46.73;99410.56;5008185;28;20529;-75
2024/02/26 04:35:07;;;;;;;2.25;1.50;;;;;;;6.39;47.03;99424.28;5003982;28;20112;-75
2024/02/26 04:37:36;;;;;;;2.92;1.88;;;;;;;6.38;47.05;99421.69;5001210;28;20050;-74
2024/02/26 04:40:05;;;;;;;2.10;1.30;;;;;;;6.37;46.72;99418.13;5002287;28;20041;-74
2024/02/26 04:42:33;;;;;;;2.17;1.30;;;;;;;6.35;46.93;99422.84;4982797;28;20455;-74
2024/02/26 04:45:01;;;;;;;2.15;1.33;;;;;;;6.31;46.95;99421.41;4986237;28;20104;-77
2024/02/26 04:47:30;;;;;;;1.80;1.30;;;;;;;6.30;46.93;99427.84;5001326;28;20049;-74
2024/02/26 04:49:59;;;;;;;2.47;1.45;;;;;;;6.30;47.16;99438.72;5008214;28;20065;-74
2024/02/26 04:52:27;;;;;;;2.30;1.40;;;;;;;6.26;47.35;99425.56;5001033;28;20038;-74
2024/02/26 04:54:56;;;;;;;2.53;1.67;;;;;;;6.23;47.55;99432.13;4993329;28;20046;-74
2024/02/26 04:57:24;;;;;;;1.88;1.35;;;;;;;6.22;47.25;99418.69;5009860;28;20054;-74
2024/02/26 04:59:52;;;;;;;2.22;1.40;;;;;;;6.20;47.38;99426.97;4991501;28;20046;-74
2024/02/26 05:02:20;;;;;;;2.30;1.58;;;;;;;6.19;47.31;99430.72;5001131;28;20042;-74
2024/02/26 05:04:48;;;;;;;2.90;1.30;;;;;;;6.18;47.31;99429.00;4995488;28;20582;-74
2024/02/26 05:07:17;;;;;;;2.25;1.40;;;;;;;6.19;46.90;99438.00;4987952;28;20046;-74
2024/02/26 05:09:46;;;;;;;2.55;1.33;;;;;;;6.17;47.04;99435.41;5000945;28;20125;-74
2024/02/26 05:12:15;;;;;;;2.35;1.42;;;;;;;6.16;47.41;99441.84;5007760;28;20050;-74
2024/02/26 05:14:43;;;;;;;2.90;1.60;;;;;;;6.15;47.14;99442.84;5004855;28;20048;-74
2024/02/26 05:17:11;;;;;;;2.83;1.63;;;;;;;6.14;47.18;99441.13;4991447;28;20043;-75
2024/02/26 05:19:39;;;;;;;2.67;1.50;;;;;;;6.14;47.25;99445.69;5007724;28;20527;-75
2024/02/26 05:22:07;;;;;;;2.63;1.42;;;;;;;6.14;47.35;99442.97;4992754;28;20053;-76
2024/02/26 05:24:35;;;;;;;3.10;1.50;;;;;;;6.13;47.14;99447.56;4995161;28;20133;-77
2024/02/26 05:27:03;;;;;;;2.75;1.40;;;;;;;6.13;47.26;99447.56;5010664;28;20100;-76
2024/02/26 05:29:33;;;;;;;2.17;1.30;;;;;;;6.14;47.15;99453.84;4993334;28;20390;-76
2024/02/26 05:32:01;;;;;;;2.67;1.20;;;;;;;6.12;47.15;99453.16;5007204;28;20133;-77
2024/02/26 05:34:30;;;;;;;2.83;1.48;;;;;;;6.11;47.29;99456.84;5010998;28;20057;-76
2024/02/26 05:36:58;;;;;;;2.45;1.60;;;;;;;6.12;47.40;99470.28;5008444;28;20697;-76
2024/02/26 05:39:26;;;;;;;3.15;1.40;;;;;;;6.11;47.52;99463.16;5009897;28;20124;-76
2024/02/26 05:41:54;;;;;;;1.90;1.40;;;;;;;6.11;47.79;99462.28;4989496;28;20387;-74
2024/02/26 05:44:23;;;;;;;2.22;1.40;;;;;;;6.08;48.25;99460.72;5007643;28;20513;-75
2024/02/26 05:46:53;;;;;;;3.97;1.60;;;;;;;6.09;48.00;99459.72;4994213;28;20041;-75
2024/02/26 05:49:22;;;;;;;2.60;1.50;;;;;;;6.05;47.60;99460.97;4993045;28;20366;-76
2024/02/26 05:51:50;;;;;;;2.42;1.45;;;;;;;6.03;47.83;99463.00;4995547;28;20487;-76
2024/02/26 05:54:19;;;;;;;2.83;1.58;;;;;;;6.03;47.83;99465.72;4986071;28;20046;-77
2024/02/26 05:56:49;;;;;;;3.00;1.55;;;;;;;6.00;47.72;99469.56;5007182;28;20053;-76
2024/02/26 05:59:18;;;;;;;3.10;1.70;;;;;;;6.00;47.68;99465.97;4999063;28;20502;-76
2024/02/26 06:01:45;;;;;;;3.13;1.50;;;;;;;5.97;47.98;99464.38;5002533;28;20052;-76
2024/02/26 06:04:16;;;;;;;2.70;1.60;;;;;;;5.98;48.08;99471.53;4994699;28;20046;-76
2024/02/26 06:06:45;;;;;;;3.15;1.80;;;;;;;5.96;48.06;99480.81;5002857;28;20139;-76
2024/02/26 06:09:14;;;;;;;2.75;1.73;;;;;;;5.95;48.20;99477.22;5011023;28;20046;-76
2024/02/26 06:11:42;;;;;;;3.55;1.80;;;;;;;5.93;47.99;99472.97;5008874;28;20037;-78
2024/02/26 06:14:12;;;;;;;3.22;1.90;;;;;;;5.92;48.09;99485.69;4993169;28;20061;-76
2024/02/26 06:16:40;;;;;;;3.08;1.77;;;;;;;5.93;48.09;99483.81;5005594;28;20042;-76
2024/02/26 06:19:08;;;;;;;3.75;1.80;;;;;;;5.90;48.14;99481.38;4991435;28;20109;-77
2024/02/26 06:21:41;;;;;;;2.80;1.67;;;;;;;5.89;48.41;99491.38;4987199;28;20073;-76
2024/02/26 06:24:09;;;;;;;3.42;2.08;;;;;;;5.88;48.17;99494.22;4995765;28;20118;-76
2024/02/26 06:26:37;;;;;;;2.97;1.70;;;;;;;5.89;48.08;99498.66;4997000;28;20045;-78
2024/02/26 06:29:05;;;;;;;3.80;1.90;;;;;;;5.87;48.60;99501.50;5011918;28;20064;-76
2024/02/26 06:31:34;;;;;;;3.65;2.10;;;;;;;5.86;48.39;99510.69;4991288;28;20042;-76
2024/02/26 06:34:03;;;;;;;3.65;2.00;;;;;;;5.86;48.37;99516.09;5015268;28;20066;-78
2024/02/26 06:36:33;;;;;;;3.60;1.90;;;;;;;5.84;48.47;99518.09;4995719;28;20052;-77
2024/02/26 06:39:02;;;;;;;3.13;1.80;;;;;;;5.86;48.60;99523.38;4995820;28;20038;-76
2024/02/26 06:41:31;;;;;;;3.47;1.95;;;;;;;5.86;48.25;99534.25;4999505;28;20541;-77
2024/02/26 06:43:59;;;;;;;2.72;1.92;;;;;;;5.86;48.43;99535.13;5008306;28;20049;-75
2024/02/26 06:46:28;;;;;;;2.85;1.90;;;;;;;5.85;48.46;99530.66;5006531;28;20493;-77
2024/02/26 06:48:56;;;;;;;3.00;1.90;;;;;;;5.85;48.86;99535.25;4992520;28;20050;-78
2024/02/26 06:51:24;;;;;;;3.42;1.83;;;;;;;5.86;48.62;99542.41;5012355;28;20041;-78
2024/02/26 06:53:52;;;;;;;3.22;1.80;;;;;;;5.87;48.50;99547.66;5007495;28;20046;-77
2024/02/26 06:56:22;;;;;;;3.28;2.10;;;;;;;5.90;48.78;99543.81;4996586;28;20068;-75
2024/02/26 06:58:50;;;;;;;3.70;2.30;;;;;;;5.89;48.31;99547.53;4995010;28;20046;-78
2024/02/26 07:01:19;;;;;;;3.08;1.83;;;;;;;5.91;48.73;99554.56;5008924;28;20556;-79
2024/02/26 07:03:47;;;;;;;3.95;2.20;;;;;;;5.90;48.33;99560.97;5009683;28;20054;-75
2024/02/26 07:06:16;;;;;;;3.50;1.95;;;;;;;5.91;48.54;99561.84;4994396;28;20046;-77
2024/02/26 07:08:45;;;;;;;3.25;2.10;;;;;;;5.91;48.60;99564.56;4987618;28;20042;-80
2024/02/26 07:11:14;;;;;;;3.58;2.20;;;;;;;5.91;48.17;99572.69;4990926;28;20543;-78
2024/02/26 07:13:43;;;;;;;4.50;2.20;;;;;;;5.91;48.65;99570.84;5005435;28;20390;-77
2024/02/26 07:16:11;;;;;;;3.33;2.10;;;;;;;5.88;48.68;99565.69;5002288;28;20529;-75
2024/02/26 07:18:40;;;;;;;3.75;2.40;;;;;;;5.89;48.40;99570.13;5008884;28;20076;-76
2024/02/26 07:21:08;;;;;;;4.03;2.10;;;;;;;5.89;48.57;99572.84;5007008;28;20053;-75
2024/02/26 07:23:36;;;;;;;3.42;2.17;;;;;;;5.90;48.67;99573.69;5006205;28;20133;-75
2024/02/26 07:26:04;;;;;;;3.28;2.00;;;;;;;5.91;48.63;99578.13;5006800;28;20058;-75
2024/02/26 07:28:33;;;;;;;3.55;2.38;;;;;;;5.90;48.49;99590.84;4988564;28;20410;-76
2024/02/26 07:31:03;;;;;;;4.20;2.30;;;;;;;5.92;48.82;99579.84;5010647;28;20489;-77
2024/02/26 07:33:31;;;;;;;3.97;2.53;;;;;;;5.91;48.42;99586.28;5009118;28;20429;-76
2024/02/26 07:35:59;;;;;;;5.57;2.72;;;;;;;5.92;48.68;99579.84;4992328;28;20100;-76
2024/02/26 07:38:27;;;;;;;4.10;2.55;;;;;;;5.91;48.68;99581.72;5011168;28;20072;-77
2024/02/26 07:41:09;;;;;;;3.13;2.10;;;;;;;5.89;48.69;99582.84;4992771;28;20037;-76
2024/02/26 07:43:38;;;;;;;4.85;2.53;;;;;;;5.91;48.88;99587.16;4992761;28;20041;-76
2024/02/26 07:46:07;;;;;;;3.38;2.25;;;;;;;5.93;48.74;99590.59;5009266;28;20052;-76
2024/02/26 07:48:35;;;;;;;3.78;2.20;;;;;;;5.92;48.81;99597.00;4991474;28;20758;-76
2024/02/26 07:51:04;;;;;;;4.15;2.20;;;;;;;5.93;48.86;99589.72;5009913;28;20042;-76
2024/02/26 07:53:32;;;;;;;3.40;2.10;;;;;;;5.92;48.66;99597.00;5005369;28;20038;-76
2024/02/26 07:56:08;;;;;;;3.90;2.33;;;;;;;5.93;49.00;99606.03;5008911;28;20137;-76
2024/02/26 07:58:36;;;;;;;5.85;2.40;;;;;;;5.92;48.96;99599.72;5002067;28;20130;-75
2024/02/26 08:01:04;;;;;;;4.75;2.20;;;;;;;5.94;48.83;99596.88;4989629;28;20120;-76
2024/02/26 08:03:34;;;;;;;6.47;2.83;;;;;;;5.95;48.94;99604.88;4991343;28;20133;-76
2024/02/26 08:06:02;;;;;;;2.83;1.88;;;;;;;5.95;49.08;99606.75;4991435;28;20096;-76
2024/02/26 08:08:30;;;;;;;3.78;2.20;;;;;;;5.95;48.91;99604.88;5002053;28;20408;-76
2024/02/26 08:10:58;;;;;;;3.05;1.95;;;;;;;5.98;48.90;99620.03;4990459;28;20310;-76
2024/02/26 08:13:27;;;;;;;3.25;2.30;;;;;;;5.97;49.08;99613.75;5009407;28;20104;-76
2024/02/26 08:15:54;;;;;;;3.50;2.10;;;;;;;5.97;48.93;99616.47;5017760;28;20038;-76
2024/02/26 08:18:22;;;;;;;3.65;1.90;;;;;;;5.98;49.12;99622.75;5008056;28;20046;-77
2024/02/26 08:20:52;;;;;;;3.13;1.92;;;;;;;5.99;49.35;99619.91;4991656;28;20093;-76
2024/02/26 08:23:20;;;;;;;3.20;2.10;;;;;;;5.99;49.72;99630.78;5002478;28;20054;-76
2024/02/26 08:25:48;;;;;;;3.92;2.00;;;;;;;6.00;49.23;99639.78;4982767;28;20064;-77
2024/02/26 08:28:17;;;;;;;4.68;2.17;;;;;;;5.99;49.20;99632.63;5007896;28;20042;-77
2024/02/26 08:30:46;;;;;;;3.20;1.85;;;;;;;6.00;49.53;99634.34;5009336;28;20053;-76
2024/02/26 08:33:14;;;;;;;2.40;1.70;;;;;;;5.99;49.18;99633.50;4996461;28;20111;-76
2024/02/26 08:35:42;;;;;;;3.30;1.70;;;;;;;6.00;49.74;99635.22;5009679;28;20046;-76
2024/02/26 08:38:11;;;;;;;3.20;1.85;;;;;;;6.02;49.66;99643.22;5007195;28;20616;-76
2024/02/26 08:40:39;;;;;;;3.72;1.80;;;;;;;6.03;49.36;99650.38;4990549;28;20053;-75
2024/02/26 08:43:09;;;;;;;3.60;1.90;;;;;;;6.00;49.31;99643.38;5020547;23;20108;-76
2024/02/26 08:45:38;;;;;;;3.10;1.77;;;;;;;6.00;49.64;99648.78;4982842;28;20042;-76
2024/02/26 08:48:07;;;;;;;3.47;1.80;;;;;;;6.03;49.45;99647.69;4988083;28;20065;-75
2024/02/26 08:50:36;;;;;;;3.58;1.75;;;;;;;6.02;49.68;99654.97;4977084;28;20046;-76
2024/02/26 08:53:05;;;;;;;3.78;1.73;;;;;;;6.03;49.87;99656.69;4970809;28;20060;-75
2024/02/26 08:55:36;;;;;;;3.05;1.67;;;;;;;6.05;49.80;99661.97;4966210;28;26249;-73
2024/02/26 08:58:04;;;;;;;2.80;1.52;;;;;;;6.04;49.55;99671.97;4983996;28;20078;-74
2024/02/26 09:00:32;;;;;;;3.22;2.00;;;;;;;6.05;49.55;99659.25;4994820;28;20061;-74
2024/02/26 09:03:00;;;;;;;3.40;1.80;;;;;;;6.06;49.98;99660.97;4989583;28;20039;-75
2024/02/26 09:05:35;;;;;;;2.30;1.33;;;;;;;6.05;49.86;99651.94;4961621;28;20105;-74
2024/02/26 09:08:04;;;;;;;3.03;1.50;;;;;;;6.06;49.77;99669.97;4963641;28;20568;-74
2024/02/26 09:10:32;;;;;;;3.15;1.80;;;;;;;6.06;49.67;99672.69;4989249;28;20053;-74
2024/02/26 09:13:02;;;;;;;3.20;1.75;;;;;;;6.07;50.17;99666.28;4964147;28;20058;-75
2024/02/26 09:15:30;;;;;;;3.28;1.60;;;;;;;6.07;49.87;99677.13;4969713;28;20070;-74
2024/02/26 09:17:58;;;;;;;4.35;1.88;;;;;;;6.08;49.91;99669.84;4965776;28;20061;-75
2024/02/26 09:20:27;;;;;;;3.67;1.88;;;;;;;6.08;50.27;99675.28;4970646;28;20050;-75
2024/02/26 09:22:55;;;;;;;2.15;1.45;;;;;;;6.10;50.12;99676.00;4983992;28;20061;-75
2024/02/26 09:25:23;;;;;;;3.00;1.60;;;;;;;6.11;50.19;99679.59;4973008;28;20095;-76
2024/02/26 09:27:51;;;;;;;3.22;1.60;;;;;;;6.07;50.23;99671.69;4966652;28;20533;-74
2024/02/26 09:30:20;;;;;;;3.60;1.70;;;;;;;6.11;50.21;99679.59;4970445;28;20046;-75
2024/02/26 09:32:48;;;;;;;3.65;1.90;;;;;;;6.10;50.42;99686.03;4988677;28;20038;-75
2024/02/26 09:35:17;;;;;;;2.88;1.80;;;;;;;6.11;50.33;99691.31;4995128;28;20046;-75
2024/02/26 09:37:45;;;;;;;2.42;1.50;;;;;;;6.12;50.32;99687.59;4969605;28;20047;-75
2024/02/26 09:40:13;;;;;;;3.75;1.80;;;;;;;6.12;50.23;99689.47;4965028;28;20163;-76
2024/02/26 09:42:45;;;;;;;3.80;1.80;;;;;;;6.15;50.83;99702.75;4979115;28;20085;-77
2024/02/26 09:45:20;;;;;;;2.85;1.60;;;;;;;6.14;50.94;99707.34;4984771;28;20130;-78
2024/02/26 09:47:49;;;;;;;4.03;2.03;;;;;;;6.15;50.53;99708.19;4969645;28;20047;-76
2024/02/26 09:50:22;;;;;;;3.80;1.73;;;;;;;6.14;50.44;99710.03;4989278;28;20050;-76
2024/02/26 09:52:51;;;;;;;5.10;2.40;;;;;;;6.13;50.55;99712.88;4975470;28;20521;-76
2024/02/26 09:55:20;;;;;;;5.40;2.00;;;;;;;6.13;50.46;99718.31;4965777;28;20784;-76
2024/02/26 09:57:49;;;;;;;2.97;1.83;;;;;;;6.16;50.51;99721.66;4989070;28;20756;-76
2024/02/26 10:00:21;;;;;;;4.35;2.05;;;;;;;6.17;50.67;99725.22;4975756;28;20054;-77
2024/02/26 10:02:50;;;;;;;3.33;1.90;;;;;;;6.13;50.48;99730.06;4991452;28;20132;-77
2024/02/26 10:05:19;;;;;;;4.90;1.90;;;;;;;6.16;50.64;99727.09;4982873;28;20046;-76
2024/02/26 10:07:48;;;;;;;3.13;1.73;;;;;;;6.17;50.57;99731.53;4987519;28;20464;-76
2024/02/26 10:10:17;;;;;;;3.17;1.80;;;;;;;6.18;50.66;99737.81;4968303;28;20043;-76
2024/02/26 10:12:45;;;;;;;4.13;1.88;;;;;;;6.18;50.77;99738.69;4988665;28;20125;-74
2024/02/26 10:15:14;;;;;;;4.18;1.95;;;;;;;6.18;50.67;99732.38;4988518;28;20479;-74
2024/02/26 10:17:44;;;;;;;2.92;1.80;;;;;;;6.21;50.92;99740.25;4974005;28;20502;-74
2024/02/26 10:20:17;;;;;;;4.50;1.88;;;;;;;6.21;51.36;99741.13;4974825;28;20458;-74
2024/02/26 10:22:49;;;;;;;3.00;1.75;;;;;;;6.21;50.83;99751.13;4963809;28;20394;-74
2024/02/26 10:25:18;;;;;;;3.05;1.90;;;;;;;6.22;50.95;99751.00;4995145;28;20046;-74
2024/02/26 10:27:46;;;;;;;2.92;1.83;;;;;;;6.23;50.98;99755.44;4996379;28;20042;-74
2024/02/26 10:30:18;;;;;;;3.88;1.83;;;;;;;6.25;51.34;99758.03;4974931;28;20129;-74
2024/02/26 10:32:48;;;;;;;5.03;1.90;;;;;;;6.23;51.41;99762.72;4973921;28;20046;-74
2024/02/26 10:35:28;;;;;;;;;;;;;;;;;;;;;
2024/02/26 10:38:00;;;;;;;;;;;;;;;5.96;53.37;99764.09;4952606;28;20089;-73
2024/02/26 10:40:28;;;;;;;3.08;2.00;;;;;;;6.17;51.12;99771.41;4970709;28;20424;-74
2024/02/26 10:42:56;;;;;;;3.92;2.10;;;;;;;6.19;51.22;99767.56;4973751;28;20451;-74
2024/02/26 10:45:24;;;;;;;3.03;1.90;;;;;;;6.19;51.39;99775.72;4976140;28;20034;-74
2024/02/26 10:47:54;;;;;;;3.30;1.98;;;;;;;6.23;51.60;99773.59;4984482;28;20078;-74
2024/02/26 10:50:22;;;;;;;3.85;1.88;;;;;;;6.22;51.43;99774.56;4986593;28;20045;-74
2024/02/26 10:52:50;;;;;;;3.72;2.00;;;;;;;6.21;51.48;99779.16;4986403;28;20052;-74
2024/02/26 10:55:19;;;;;;;3.97;1.80;;;;;;;6.23;51.46;99781.75;4987610;28;20402;-74
2024/02/26 10:57:51;;;;;;;4.65;2.47;;;;;;;6.24;51.61;99789.75;4962324;28;20042;-74
2024/02/26 11:00:19;;;;;;;3.47;1.95;;;;;;;6.25;51.26;99794.22;4986131;28;20128;-74
2024/02/26 11:02:49;;;;;;;3.72;2.15;;;;;;;6.27;51.79;99796.78;4967532;28;20067;-74
2024/02/26 11:05:19;;;;;;;5.20;2.30;;;;;;;6.26;51.63;99789.63;4983726;28;20462;-74
2024/02/26 11:07:49;;;;;;;4.63;2.25;;;;;;;6.27;51.57;99791.38;4984667;28;20058;-74
2024/02/26 11:10:18;;;;;;;3.70;2.20;;;;;;;6.26;51.86;99804.09;4964716;28;20049;-74
2024/02/26 11:13:20;;;;;;;3.90;2.20;;;;;;;6.24;51.76;99803.34;4945384;28;20062;-75
2024/02/26 11:15:49;;;;;;;3.65;2.22;;;;;;;6.24;51.70;99799.78;4936013;29;20098;-75
2024/02/26 11:18:17;;;;;;;3.42;2.15;;;;;;;6.24;52.00;99808.78;4922065;29;20043;-76
2024/02/26 11:20:49;;;;;;;3.78;2.13;;;;;;;6.27;52.18;99804.94;4938323;29;20376;-76
2024/02/26 11:23:17;;;;;;;4.65;2.35;;;;;;;6.27;51.97;99807.66;4913510;29;20071;-76
2024/02/26 11:25:45;;;;;;;4.28;2.55;;;;;;;6.26;52.16;99806.81;4938884;29;20046;-76
2024/02/26 11:28:19;;;;;;;4.45;2.40;;;;;;;6.30;52.53;99815.53;4938639;28;20122;-76
2024/02/26 11:30:50;;;;;;;3.97;2.63;;;;;;;6.31;52.49;99817.25;4931487;29;20055;-77
2024/02/26 11:33:20;;;;;;;3.20;2.20;;;;;;;6.31;52.22;99814.53;4933336;29;20050;-77
2024/02/26 11:35:49;;;;;;;4.35;2.50;;;;;;;6.31;52.24;99815.41;4933031;29;20039;-76
2024/02/26 11:38:22;;;;;;;4.10;2.72;;;;;;;6.33;52.67;99818.00;4919104;29;20046;-75
2024/02/26 11:40:51;;;;;;;3.63;2.38;;;;;;;6.27;52.48;99813.97;4931456;29;20044;-76
2024/02/26 11:43:23;;;;;;;3.70;2.33;;;;;;;6.30;52.14;99819.13;4914233;29;20570;-77
2024/02/26 11:45:52;;;;;;;3.80;2.38;;;;;;;6.29;52.21;99821.97;4936892;29;20039;-76
2024/02/26 11:48:25;;;;;;;4.35;2.50;;;;;;;6.33;52.72;99818.00;4913285;29;20044;-76
2024/02/26 11:50:56;;;;;;;4.95;3.20;;;;;;;6.31;52.41;99819.97;4921769;29;20047;-76